sensor_id;sensor_type;location;lat;lon;timestamp;P1;durP1;ratioP1;P2;durP2;ratioP2
21034;SDS011;10676;50.848;3.272;2022-12-16T00:00:21;97.07;;;46.00;;
21034;SDS011;10676;50.848;3.272;2022-12-16T00:02:48;96.17;;;45.90;;
21034;SDS011;10676;50.848;3.272;2022-12-16T00:05:15;88.63;;;45.73;;
21034;SDS011;10676;50.848;3.272;2022-12-16T00:07:41;89.20;;;43.77;;
21034;SDS011;10676;50.848;3.272;2022-12-16T00:10:07;86.13;;;44.50;;
21034;SDS011;10676;50.848;3.272;2022-12-16T00:12:33;82.77;;;41.37;;
21034;SDS011;10676;50.848;3.272;2022-12-16T00:14:58;79.63;;;40.63;;
21034;SDS011;10676;50.848;3.272;2022-12-16T00:17:24;83.57;;;44.47;;
21034;SDS011;10676;50.848;3.272;2022-12-16T00:19:50;81.77;;;43.33;;
21034;SDS011;10676;50.848;3.272;2022-12-16T00:22:16;78.47;;;40.67;;
21034;SDS011;10676;50.848;3.272;2022-12-16T00:24:41;83.20;;;42.80;;
21034;SDS011;10676;50.848;3.272;2022-12-16T00:27:07;72.13;;;38.70;;
21034;SDS011;10676;50.848;3.272;2022-12-16T00:29:33;66.53;;;38.00;;
21034;SDS011;10676;50.848;3.272;2022-12-16T00:31:58;75.77;;;38.83;;
21034;SDS011;10676;50.848;3.272;2022-12-16T00:34:24;63.13;;;35.10;;
21034;SDS011;10676;50.848;3.272;2022-12-16T00:36:50;68.87;;;35.30;;
21034;SDS011;10676;50.848;3.272;2022-12-16T00:39:16;63.70;;;35.30;;
21034;SDS011;10676;50.848;3.272;2022-12-16T00:41:41;62.10;;;35.80;;
21034;SDS011;10676;50.848;3.272;2022-12-16T00:44:07;62.30;;;31.93;;
21034;SDS011;10676;50.848;3.272;2022-12-16T00:46:33;59.37;;;32.60;;
21034;SDS011;10676;50.848;3.272;2022-12-16T00:48:58;60.90;;;34.07;;
21034;SDS011;10676;50.848;3.272;2022-12-16T00:51:24;59.77;;;34.00;;
21034;SDS011;10676;50.848;3.272;2022-12-16T00:53:50;67.00;;;34.97;;
21034;SDS011;10676;50.848;3.272;2022-12-16T00:56:16;59.87;;;35.17;;
21034;SDS011;10676;50.848;3.272;2022-12-16T00:58:44;62.53;;;35.63;;
21034;SDS011;10676;50.848;3.272;2022-12-16T01:01:10;58.20;;;34.53;;
21034;SDS011;10676;50.848;3.272;2022-12-16T01:03:36;60.23;;;34.20;;
21034;SDS011;10676;50.848;3.272;2022-12-16T01:06:06;60.47;;;35.00;;
21034;SDS011;10676;50.848;3.272;2022-12-16T01:08:36;62.20;;;33.73;;
21034;SDS011;10676;50.848;3.272;2022-12-16T01:11:02;53.93;;;32.90;;
21034;SDS011;10676;50.848;3.272;2022-12-16T01:13:28;51.20;;;30.40;;
21034;SDS011;10676;50.848;3.272;2022-12-16T01:15:53;58.67;;;29.43;;
21034;SDS011;10676;50.848;3.272;2022-12-16T01:18:19;53.87;;;29.47;;
21034;SDS011;10676;50.848;3.272;2022-12-16T01:20:45;52.47;;;29.93;;
21034;SDS011;10676;50.848;3.272;2022-12-16T01:23:10;47.37;;;28.27;;
21034;SDS011;10676;50.848;3.272;2022-12-16T01:25:36;53.50;;;30.17;;
21034;SDS011;10676;50.848;3.272;2022-12-16T01:28:01;49.30;;;30.07;;
21034;SDS011;10676;50.848;3.272;2022-12-16T01:30:28;46.87;;;30.20;;
21034;SDS011;10676;50.848;3.272;2022-12-16T01:32:53;50.23;;;28.07;;
21034;SDS011;10676;50.848;3.272;2022-12-16T01:35:19;45.23;;;27.67;;
21034;SDS011;10676;50.848;3.272;2022-12-16T01:37:45;47.17;;;28.20;;
21034;SDS011;10676;50.848;3.272;2022-12-16T01:40:15;53.90;;;31.10;;
21034;SDS011;10676;50.848;3.272;2022-12-16T01:42:43;53.13;;;33.13;;
21034;SDS011;10676;50.848;3.272;2022-12-16T01:45:27;42.27;;;28.43;;
21034;SDS011;10676;50.848;3.272;2022-12-16T01:47:56;47.13;;;29.33;;
21034;SDS011;10676;50.848;3.272;2022-12-16T01:50:27;53.47;;;31.03;;
21034;SDS011;10676;50.848;3.272;2022-12-16T01:52:54;50.23;;;29.97;;
21034;SDS011;10676;50.848;3.272;2022-12-16T01:55:25;48.97;;;30.77;;
21034;SDS011;10676;50.848;3.272;2022-12-16T01:58:15;50.20;;;32.63;;
21034;SDS011;10676;50.848;3.272;2022-12-16T02:00:50;47.67;;;30.87;;
21034;SDS011;10676;50.848;3.272;2022-12-16T02:03:16;50.17;;;30.93;;
21034;SDS011;10676;50.848;3.272;2022-12-16T02:05:42;58.27;;;30.70;;
21034;SDS011;10676;50.848;3.272;2022-12-16T02:08:13;53.23;;;32.23;;
21034;SDS011;10676;50.848;3.272;2022-12-16T02:16:20;44.73;;;28.47;;
21034;SDS011;10676;50.848;3.272;2022-12-16T02:35:40;42.07;;;27.47;;
21034;SDS011;10676;50.848;3.272;2022-12-16T02:41:11;42.17;;;27.93;;
21034;SDS011;10676;50.848;3.272;2022-12-16T02:44:00;45.40;;;28.10;;
21034;SDS011;10676;50.848;3.272;2022-12-16T02:46:31;42.13;;;27.00;;
21034;SDS011;10676;50.848;3.272;2022-12-16T02:49:06;42.97;;;26.47;;
21034;SDS011;10676;50.848;3.272;2022-12-16T02:51:33;38.53;;;26.60;;
21034;SDS011;10676;50.848;3.272;2022-12-16T02:54:02;43.67;;;26.83;;
21034;SDS011;10676;50.848;3.272;2022-12-16T02:59:42;38.63;;;25.30;;
21034;SDS011;10676;50.848;3.272;2022-12-16T03:05:14;36.63;;;26.30;;
21034;SDS011;10676;50.848;3.272;2022-12-16T03:07:48;42.63;;;26.97;;
21034;SDS011;10676;50.848;3.272;2022-12-16T03:10:18;42.37;;;28.17;;
21034;SDS011;10676;50.848;3.272;2022-12-16T03:12:47;43.43;;;25.80;;
21034;SDS011;10676;50.848;3.272;2022-12-16T03:15:14;41.93;;;28.87;;
21034;SDS011;10676;50.848;3.272;2022-12-16T03:17:42;39.93;;;27.57;;
21034;SDS011;10676;50.848;3.272;2022-12-16T03:20:17;40.93;;;26.03;;
21034;SDS011;10676;50.848;3.272;2022-12-16T03:22:53;44.13;;;28.40;;
21034;SDS011;10676;50.848;3.272;2022-12-16T03:25:22;40.63;;;27.27;;
21034;SDS011;10676;50.848;3.272;2022-12-16T03:30:20;42.13;;;27.83;;
21034;SDS011;10676;50.848;3.272;2022-12-16T03:32:59;52.07;;;28.17;;
21034;SDS011;10676;50.848;3.272;2022-12-16T03:38:31;42.07;;;26.43;;
21034;SDS011;10676;50.848;3.272;2022-12-16T03:40:57;41.60;;;27.77;;
21034;SDS011;10676;50.848;3.272;2022-12-16T03:43:25;35.23;;;25.77;;
21034;SDS011;10676;50.848;3.272;2022-12-16T03:45:52;36.43;;;25.10;;
21034;SDS011;10676;50.848;3.272;2022-12-16T03:48:22;43.67;;;26.40;;
21034;SDS011;10676;50.848;3.272;2022-12-16T03:50:49;44.13;;;24.40;;
21034;SDS011;10676;50.848;3.272;2022-12-16T03:53:15;38.90;;;25.33;;
21034;SDS011;10676;50.848;3.272;2022-12-16T03:55:40;39.97;;;26.00;;
21034;SDS011;10676;50.848;3.272;2022-12-16T03:58:06;34.40;;;24.50;;
21034;SDS011;10676;50.848;3.272;2022-12-16T04:00:32;43.87;;;26.97;;
21034;SDS011;10676;50.848;3.272;2022-12-16T04:02:57;44.50;;;25.63;;
21034;SDS011;10676;50.848;3.272;2022-12-16T04:05:23;40.10;;;26.13;;
21034;SDS011;10676;50.848;3.272;2022-12-16T04:07:49;38.27;;;24.90;;
21034;SDS011;10676;50.848;3.272;2022-12-16T04:10:15;42.57;;;26.10;;
21034;SDS011;10676;50.848;3.272;2022-12-16T04:12:41;43.83;;;24.97;;
21034;SDS011;10676;50.848;3.272;2022-12-16T04:15:26;35.73;;;23.33;;
21034;SDS011;10676;50.848;3.272;2022-12-16T04:18:14;31.30;;;24.17;;
21034;SDS011;10676;50.848;3.272;2022-12-16T04:21:01;37.00;;;23.60;;
21034;SDS011;10676;50.848;3.272;2022-12-16T04:23:47;36.00;;;20.67;;
21034;SDS011;10676;50.848;3.272;2022-12-16T04:26:33;34.77;;;25.20;;
21034;SDS011;10676;50.848;3.272;2022-12-16T04:29:18;34.90;;;23.47;;
21034;SDS011;10676;50.848;3.272;2022-12-16T04:31:43;32.83;;;22.13;;
21034;SDS011;10676;50.848;3.272;2022-12-16T04:34:09;30.87;;;22.37;;
21034;SDS011;10676;50.848;3.272;2022-12-16T04:36:57;26.70;;;19.97;;
21034;SDS011;10676;50.848;3.272;2022-12-16T04:39:43;29.23;;;20.83;;
21034;SDS011;10676;50.848;3.272;2022-12-16T04:42:28;29.63;;;19.03;;
21034;SDS011;10676;50.848;3.272;2022-12-16T04:45:12;26.17;;;15.83;;
21034;SDS011;10676;50.848;3.272;2022-12-16T04:47:56;19.30;;;15.47;;
21034;SDS011;10676;50.848;3.272;2022-12-16T04:50:40;26.90;;;18.80;;
21034;SDS011;10676;50.848;3.272;2022-12-16T04:53:24;30.23;;;19.00;;
21034;SDS011;10676;50.848;3.272;2022-12-16T04:56:09;30.17;;;20.77;;
21034;SDS011;10676;50.848;3.272;2022-12-16T04:58:53;43.40;;;24.33;;
21034;SDS011;10676;50.848;3.272;2022-12-16T05:01:37;33.67;;;20.97;;
21034;SDS011;10676;50.848;3.272;2022-12-16T05:04:21;30.60;;;19.73;;
21034;SDS011;10676;50.848;3.272;2022-12-16T05:07:05;20.13;;;18.13;;
21034;SDS011;10676;50.848;3.272;2022-12-16T05:09:49;23.00;;;18.07;;
21034;SDS011;10676;50.848;3.272;2022-12-16T05:12:34;29.20;;;19.17;;
21034;SDS011;10676;50.848;3.272;2022-12-16T05:15:18;26.67;;;19.53;;
21034;SDS011;10676;50.848;3.272;2022-12-16T05:18:13;27.03;;;19.60;;
21034;SDS011;10676;50.848;3.272;2022-12-16T05:20:58;23.07;;;20.00;;
21034;SDS011;10676;50.848;3.272;2022-12-16T05:23:43;21.63;;;18.73;;
21034;SDS011;10676;50.848;3.272;2022-12-16T05:26:27;24.10;;;19.07;;
21034;SDS011;10676;50.848;3.272;2022-12-16T05:29:11;22.43;;;18.63;;
21034;SDS011;10676;50.848;3.272;2022-12-16T05:31:55;22.23;;;18.87;;
21034;SDS011;10676;50.848;3.272;2022-12-16T05:34:39;23.20;;;18.43;;
21034;SDS011;10676;50.848;3.272;2022-12-16T05:37:24;24.00;;;19.10;;
21034;SDS011;10676;50.848;3.272;2022-12-16T05:40:08;28.30;;;19.50;;
21034;SDS011;10676;50.848;3.272;2022-12-16T05:42:53;27.33;;;18.17;;
21034;SDS011;10676;50.848;3.272;2022-12-16T05:45:40;27.37;;;18.73;;
21034;SDS011;10676;50.848;3.272;2022-12-16T05:48:25;26.20;;;18.23;;
21034;SDS011;10676;50.848;3.272;2022-12-16T05:51:09;27.10;;;17.77;;
21034;SDS011;10676;50.848;3.272;2022-12-16T05:53:54;25.33;;;18.90;;
21034;SDS011;10676;50.848;3.272;2022-12-16T05:56:38;26.93;;;18.27;;
21034;SDS011;10676;50.848;3.272;2022-12-16T05:59:22;23.63;;;17.80;;
21034;SDS011;10676;50.848;3.272;2022-12-16T06:02:06;33.17;;;19.57;;
21034;SDS011;10676;50.848;3.272;2022-12-16T06:04:50;22.33;;;18.90;;
21034;SDS011;10676;50.848;3.272;2022-12-16T06:07:34;25.93;;;19.97;;
21034;SDS011;10676;50.848;3.272;2022-12-16T06:10:18;28.27;;;18.90;;
21034;SDS011;10676;50.848;3.272;2022-12-16T06:13:02;34.60;;;21.53;;
21034;SDS011;10676;50.848;3.272;2022-12-16T06:15:46;25.40;;;21.07;;
21034;SDS011;10676;50.848;3.272;2022-12-16T06:18:30;37.37;;;17.93;;
21034;SDS011;10676;50.848;3.272;2022-12-16T06:21:14;32.13;;;20.53;;
21034;SDS011;10676;50.848;3.272;2022-12-16T06:23:58;29.70;;;21.63;;
21034;SDS011;10676;50.848;3.272;2022-12-16T06:26:42;28.67;;;20.13;;
21034;SDS011;10676;50.848;3.272;2022-12-16T06:29:27;36.03;;;22.93;;
21034;SDS011;10676;50.848;3.272;2022-12-16T06:32:11;34.97;;;23.30;;
21034;SDS011;10676;50.848;3.272;2022-12-16T06:34:55;39.20;;;24.07;;
21034;SDS011;10676;50.848;3.272;2022-12-16T06:37:40;38.10;;;24.23;;
21034;SDS011;10676;50.848;3.272;2022-12-16T06:40:24;34.43;;;22.97;;
21034;SDS011;10676;50.848;3.272;2022-12-16T06:43:09;36.70;;;22.40;;
21034;SDS011;10676;50.848;3.272;2022-12-16T06:45:53;32.70;;;22.67;;
21034;SDS011;10676;50.848;3.272;2022-12-16T06:48:37;32.23;;;22.43;;
21034;SDS011;10676;50.848;3.272;2022-12-16T06:51:21;34.33;;;22.23;;
21034;SDS011;10676;50.848;3.272;2022-12-16T06:54:05;33.07;;;23.33;;
21034;SDS011;10676;50.848;3.272;2022-12-16T06:56:49;35.73;;;22.47;;
21034;SDS011;10676;50.848;3.272;2022-12-16T06:59:34;34.87;;;21.57;;
21034;SDS011;10676;50.848;3.272;2022-12-16T07:02:18;30.30;;;22.53;;
21034;SDS011;10676;50.848;3.272;2022-12-16T07:05:02;29.67;;;21.53;;
21034;SDS011;10676;50.848;3.272;2022-12-16T07:07:50;32.63;;;22.50;;
21034;SDS011;10676;50.848;3.272;2022-12-16T07:10:35;29.87;;;21.33;;
21034;SDS011;10676;50.848;3.272;2022-12-16T07:13:20;39.13;;;25.43;;
21034;SDS011;10676;50.848;3.272;2022-12-16T07:16:04;44.07;;;25.67;;
21034;SDS011;10676;50.848;3.272;2022-12-16T07:18:48;45.93;;;26.17;;
21034;SDS011;10676;50.848;3.272;2022-12-16T07:21:32;39.83;;;27.60;;
21034;SDS011;10676;50.848;3.272;2022-12-16T07:24:16;36.47;;;24.90;;
21034;SDS011;10676;50.848;3.272;2022-12-16T07:27:00;40.33;;;23.47;;
21034;SDS011;10676;50.848;3.272;2022-12-16T07:29:44;36.60;;;23.07;;
21034;SDS011;10676;50.848;3.272;2022-12-16T07:32:28;36.13;;;22.17;;
21034;SDS011;10676;50.848;3.272;2022-12-16T07:35:12;35.67;;;24.10;;
21034;SDS011;10676;50.848;3.272;2022-12-16T07:37:57;33.83;;;24.03;;
21034;SDS011;10676;50.848;3.272;2022-12-16T07:40:41;39.97;;;24.77;;
21034;SDS011;10676;50.848;3.272;2022-12-16T07:43:25;36.63;;;24.50;;
21034;SDS011;10676;50.848;3.272;2022-12-16T07:46:09;39.23;;;24.47;;
21034;SDS011;10676;50.848;3.272;2022-12-16T07:48:53;37.83;;;24.20;;
21034;SDS011;10676;50.848;3.272;2022-12-16T07:51:37;40.57;;;25.73;;
21034;SDS011;10676;50.848;3.272;2022-12-16T07:54:21;34.83;;;23.77;;
21034;SDS011;10676;50.848;3.272;2022-12-16T07:57:05;36.37;;;23.53;;
21034;SDS011;10676;50.848;3.272;2022-12-16T07:59:49;36.77;;;22.13;;
21034;SDS011;10676;50.848;3.272;2022-12-16T08:02:40;34.43;;;24.93;;
21034;SDS011;10676;50.848;3.272;2022-12-16T08:05:25;43.23;;;25.07;;
21034;SDS011;10676;50.848;3.272;2022-12-16T08:08:09;36.80;;;25.13;;
21034;SDS011;10676;50.848;3.272;2022-12-16T08:10:59;43.77;;;25.23;;
21034;SDS011;10676;50.848;3.272;2022-12-16T08:13:44;37.40;;;25.93;;
21034;SDS011;10676;50.848;3.272;2022-12-16T08:16:29;44.00;;;26.27;;
21034;SDS011;10676;50.848;3.272;2022-12-16T08:19:13;36.50;;;25.97;;
21034;SDS011;10676;50.848;3.272;2022-12-16T08:21:57;43.47;;;29.13;;
21034;SDS011;10676;50.848;3.272;2022-12-16T08:24:41;45.50;;;28.73;;
21034;SDS011;10676;50.848;3.272;2022-12-16T08:27:25;42.37;;;27.67;;
21034;SDS011;10676;50.848;3.272;2022-12-16T08:30:10;40.67;;;28.80;;
21034;SDS011;10676;50.848;3.272;2022-12-16T08:32:54;50.40;;;31.67;;
21034;SDS011;10676;50.848;3.272;2022-12-16T08:35:38;57.20;;;35.07;;
21034;SDS011;10676;50.848;3.272;2022-12-16T08:38:22;57.23;;;34.13;;
21034;SDS011;10676;50.848;3.272;2022-12-16T08:41:06;58.63;;;34.50;;
21034;SDS011;10676;50.848;3.272;2022-12-16T08:43:50;52.43;;;33.73;;
21034;SDS011;10676;50.848;3.272;2022-12-16T08:46:35;59.53;;;34.63;;
21034;SDS011;10676;50.848;3.272;2022-12-16T08:49:19;53.03;;;35.20;;
21034;SDS011;10676;50.848;3.272;2022-12-16T08:52:03;60.27;;;35.17;;
21034;SDS011;10676;50.848;3.272;2022-12-16T08:54:47;58.10;;;34.70;;
21034;SDS011;10676;50.848;3.272;2022-12-16T08:57:31;64.70;;;36.13;;
21034;SDS011;10676;50.848;3.272;2022-12-16T09:00:15;51.30;;;33.30;;
21034;SDS011;10676;50.848;3.272;2022-12-16T09:02:59;63.73;;;36.97;;
21034;SDS011;10676;50.848;3.272;2022-12-16T09:05:43;59.17;;;37.07;;
21034;SDS011;10676;50.848;3.272;2022-12-16T09:08:28;58.47;;;38.43;;
21034;SDS011;10676;50.848;3.272;2022-12-16T09:11:13;64.97;;;38.50;;
21034;SDS011;10676;50.848;3.272;2022-12-16T09:13:57;58.63;;;35.90;;
21034;SDS011;10676;50.848;3.272;2022-12-16T09:16:41;63.80;;;37.00;;
21034;SDS011;10676;50.848;3.272;2022-12-16T09:19:25;67.13;;;35.93;;
21034;SDS011;10676;50.848;3.272;2022-12-16T09:22:09;70.90;;;40.83;;
21034;SDS011;10676;50.848;3.272;2022-12-16T09:24:53;109.20;;;54.00;;
21034;SDS011;10676;50.848;3.272;2022-12-16T09:27:37;135.87;;;67.33;;
21034;SDS011;10676;50.848;3.272;2022-12-16T09:30:22;158.23;;;77.03;;
21034;SDS011;10676;50.848;3.272;2022-12-16T09:33:05;180.57;;;56.77;;
21034;SDS011;10676;50.848;3.272;2022-12-16T09:35:50;1865.53;;;177.93;;
21034;SDS011;10676;50.848;3.272;2022-12-16T09:38:34;1999.90;;;273.40;;
21034;SDS011;10676;50.848;3.272;2022-12-16T09:44:45;545.13;;;46.63;;
21034;SDS011;10676;50.848;3.272;2022-12-16T09:50:47;1173.38;;;87.00;;
21034;SDS011;10676;50.848;3.272;2022-12-16T09:53:35;82.22;;;23.40;;
21034;SDS011;10676;50.848;3.272;2022-12-16T09:56:23;32.55;;;18.65;;
21034;SDS011;10676;50.848;3.272;2022-12-16T09:59:13;104.22;;;21.33;;
21034;SDS011;10676;50.848;3.272;2022-12-16T10:02:01;33.83;;;21.65;;
21034;SDS011;10676;50.848;3.272;2022-12-16T10:04:46;25.10;;;18.38;;
21034;SDS011;10676;50.848;3.272;2022-12-16T10:07:34;32.65;;;19.08;;
21034;SDS011;10676;50.848;3.272;2022-12-16T10:10:35;31.65;;;22.42;;
21034;SDS011;10676;50.848;3.272;2022-12-16T10:13:34;526.78;;;267.35;;
21034;SDS011;10676;50.848;3.272;2022-12-16T10:19:31;1999.90;;;999.90;;
21034;SDS011;10676;50.848;3.272;2022-12-16T10:22:34;1999.90;;;999.90;;
21034;SDS011;10676;50.848;3.272;2022-12-16T10:25:28;1999.90;;;999.90;;
21034;SDS011;10676;50.848;3.272;2022-12-16T10:31:31;1999.90;;;999.90;;
21034;SDS011;10676;50.848;3.272;2022-12-16T10:34:23;1999.90;;;999.90;;
21034;SDS011;10676;50.848;3.272;2022-12-16T10:37:15;1999.90;;;999.90;;
21034;SDS011;10676;50.848;3.272;2022-12-16T10:40:04;1999.90;;;999.90;;
21034;SDS011;10676;50.848;3.272;2022-12-16T10:42:54;1999.90;;;999.90;;
21034;SDS011;10676;50.848;3.272;2022-12-16T10:45:44;29.30;;;25.20;;
21034;SDS011;10676;50.848;3.272;2022-12-16T10:48:32;27.20;;;19.87;;
21034;SDS011;10676;50.848;3.272;2022-12-16T10:51:18;23.57;;;20.57;;
21034;SDS011;10676;50.848;3.272;2022-12-16T10:54:27;31.03;;;20.23;;
21034;SDS011;10676;50.848;3.272;2022-12-16T11:03:23;24.37;;;18.03;;
21034;SDS011;10676;50.848;3.272;2022-12-16T11:06:10;24.43;;;17.47;;
21034;SDS011;10676;50.848;3.272;2022-12-16T11:09:18;30.07;;;18.93;;
21034;SDS011;10676;50.848;3.272;2022-12-16T11:12:20;21.90;;;18.53;;
21034;SDS011;10676;50.848;3.272;2022-12-16T11:18:16;24.52;;;18.70;;
21034;SDS011;10676;50.848;3.272;2022-12-16T11:21:07;26.57;;;18.23;;
21034;SDS011;10676;50.848;3.272;2022-12-16T11:24:04;22.10;;;18.13;;
21034;SDS011;10676;50.848;3.272;2022-12-16T11:26:56;22.77;;;17.83;;
21034;SDS011;10676;50.848;3.272;2022-12-16T11:29:52;24.27;;;17.80;;
21034;SDS011;10676;50.848;3.272;2022-12-16T11:32:39;22.95;;;19.30;;
21034;SDS011;10676;50.848;3.272;2022-12-16T11:35:27;22.33;;;18.00;;
21034;SDS011;10676;50.848;3.272;2022-12-16T11:38:17;26.95;;;19.38;;
21034;SDS011;10676;50.848;3.272;2022-12-16T11:41:06;21.65;;;18.35;;
21034;SDS011;10676;50.848;3.272;2022-12-16T11:43:54;20.30;;;17.15;;
21034;SDS011;10676;50.848;3.272;2022-12-16T11:46:40;23.38;;;16.92;;
21034;SDS011;10676;50.848;3.272;2022-12-16T11:49:29;33.88;;;17.55;;
21034;SDS011;10676;50.848;3.272;2022-12-16T11:52:16;23.50;;;17.77;;
21034;SDS011;10676;50.848;3.272;2022-12-16T11:55:13;26.13;;;18.83;;
21034;SDS011;10676;50.848;3.272;2022-12-16T11:58:20;26.67;;;17.83;;
21034;SDS011;10676;50.848;3.272;2022-12-16T12:01:16;25.52;;;17.77;;
21034;SDS011;10676;50.848;3.272;2022-12-16T12:04:03;21.30;;;16.58;;
21034;SDS011;10676;50.848;3.272;2022-12-16T12:06:56;28.02;;;20.48;;
21034;SDS011;10676;50.848;3.272;2022-12-16T12:09:53;27.33;;;19.05;;
21034;SDS011;10676;50.848;3.272;2022-12-16T12:12:56;23.70;;;19.00;;
21034;SDS011;10676;50.848;3.272;2022-12-16T12:15:54;31.80;;;27.05;;
21034;SDS011;10676;50.848;3.272;2022-12-16T12:22:03;28.23;;;18.13;;
21034;SDS011;10676;50.848;3.272;2022-12-16T12:25:11;22.98;;;19.05;;
21034;SDS011;10676;50.848;3.272;2022-12-16T12:28:18;1999.90;;;999.90;;
21034;SDS011;10676;50.848;3.272;2022-12-16T12:55:44;1999.90;;;999.90;;
21034;SDS011;10676;50.848;3.272;2022-12-16T12:58:31;1999.90;;;999.90;;
21034;SDS011;10676;50.848;3.272;2022-12-16T13:01:19;1999.90;;;999.90;;
21034;SDS011;10676;50.848;3.272;2022-12-16T13:04:18;1999.90;;;999.90;;
21034;SDS011;10676;50.848;3.272;2022-12-16T13:07:04;1999.90;;;999.90;;
21034;SDS011;10676;50.848;3.272;2022-12-16T13:15:57;1999.90;;;999.90;;
21034;SDS011;10676;50.848;3.272;2022-12-16T13:18:42;1999.90;;;999.90;;
21034;SDS011;10676;50.848;3.272;2022-12-16T13:27:17;1999.90;;;999.90;;
21034;SDS011;10676;50.848;3.272;2022-12-16T13:30:23;1999.90;;;999.90;;
21034;SDS011;10676;50.848;3.272;2022-12-16T13:33:28;1999.90;;;999.90;;
21034;SDS011;10676;50.848;3.272;2022-12-16T13:36:16;1999.90;;;999.90;;
21034;SDS011;10676;50.848;3.272;2022-12-16T13:39:06;1999.90;;;999.90;;
21034;SDS011;10676;50.848;3.272;2022-12-16T13:42:05;1999.90;;;999.90;;
21034;SDS011;10676;50.848;3.272;2022-12-16T13:45:29;1999.90;;;999.90;;
21034;SDS011;10676;50.848;3.272;2022-12-16T13:48:30;1999.90;;;999.90;;
21034;SDS011;10676;50.848;3.272;2022-12-16T13:54:33;1999.90;;;999.90;;
21034;SDS011;10676;50.848;3.272;2022-12-16T13:57:24;1999.90;;;999.90;;
21034;SDS011;10676;50.848;3.272;2022-12-16T14:00:17;1999.90;;;999.90;;
21034;SDS011;10676;50.848;3.272;2022-12-16T14:03:03;1999.90;;;999.90;;
21034;SDS011;10676;50.848;3.272;2022-12-16T14:06:21;1999.90;;;999.90;;
21034;SDS011;10676;50.848;3.272;2022-12-16T14:09:51;1999.90;;;999.90;;
21034;SDS011;10676;50.848;3.272;2022-12-16T14:25:20;1999.90;;;999.90;;
21034;SDS011;10676;50.848;3.272;2022-12-16T14:28:16;1999.90;;;999.90;;
21034;SDS011;10676;50.848;3.272;2022-12-16T14:31:21;1999.90;;;999.90;;
21034;SDS011;10676;50.848;3.272;2022-12-16T14:34:11;1999.90;;;999.90;;
21034;SDS011;10676;50.848;3.272;2022-12-16T14:37:14;1999.90;;;999.90;;
21034;SDS011;10676;50.848;3.272;2022-12-16T14:40:37;1999.90;;;999.90;;
21034;SDS011;10676;50.848;3.272;2022-12-16T14:43:19;1999.90;;;999.90;;
21034;SDS011;10676;50.848;3.272;2022-12-16T14:46:13;1999.90;;;999.90;;
21034;SDS011;10676;50.848;3.272;2022-12-16T14:55:45;1999.90;;;999.90;;
21034;SDS011;10676;50.848;3.272;2022-12-16T14:58:18;1999.90;;;999.90;;
21034;SDS011;10676;50.848;3.272;2022-12-16T15:01:15;1999.90;;;999.90;;
21034;SDS011;10676;50.848;3.272;2022-12-16T15:04:03;1999.90;;;999.90;;
21034;SDS011;10676;50.848;3.272;2022-12-16T15:06:54;1999.90;;;999.90;;
21034;SDS011;10676;50.848;3.272;2022-12-16T15:09:43;1999.90;;;999.90;;
21034;SDS011;10676;50.848;3.272;2022-12-16T15:12:31;1999.90;;;999.90;;
21034;SDS011;10676;50.848;3.272;2022-12-16T15:15:41;1999.90;;;999.90;;
21034;SDS011;10676;50.848;3.272;2022-12-16T15:18:27;1999.90;;;999.90;;
21034;SDS011;10676;50.848;3.272;2022-12-16T15:21:20;1999.90;;;999.90;;
21034;SDS011;10676;50.848;3.272;2022-12-16T15:24:08;1999.90;;;999.90;;
21034;SDS011;10676;50.848;3.272;2022-12-16T15:30:01;1999.90;;;999.90;;
21034;SDS011;10676;50.848;3.272;2022-12-16T15:32:52;1999.90;;;999.90;;
21034;SDS011;10676;50.848;3.272;2022-12-16T15:35:36;1999.90;;;999.90;;
21034;SDS011;10676;50.848;3.272;2022-12-16T15:41:16;1999.90;;;999.90;;
21034;SDS011;10676;50.848;3.272;2022-12-16T15:44:02;1999.90;;;999.90;;
21034;SDS011;10676;50.848;3.272;2022-12-16T15:46:47;1999.90;;;999.90;;
21034;SDS011;10676;50.848;3.272;2022-12-16T15:49:32;1999.90;;;999.90;;
21034;SDS011;10676;50.848;3.272;2022-12-16T15:58:18;1999.90;;;999.90;;
21034;SDS011;10676;50.848;3.272;2022-12-16T16:01:10;1999.90;;;999.90;;
21034;SDS011;10676;50.848;3.272;2022-12-16T16:03:57;1999.90;;;999.90;;
21034;SDS011;10676;50.848;3.272;2022-12-16T16:06:44;1999.90;;;999.90;;
21034;SDS011;10676;50.848;3.272;2022-12-16T16:09:34;1999.90;;;999.90;;
21034;SDS011;10676;50.848;3.272;2022-12-16T16:12:21;1999.90;;;999.90;;
21034;SDS011;10676;50.848;3.272;2022-12-16T16:15:07;1999.90;;;999.90;;
21034;SDS011;10676;50.848;3.272;2022-12-16T16:18:03;1999.90;;;999.90;;
21034;SDS011;10676;50.848;3.272;2022-12-16T16:20:48;1999.90;;;999.90;;
21034;SDS011;10676;50.848;3.272;2022-12-16T16:23:34;1999.90;;;999.90;;
21034;SDS011;10676;50.848;3.272;2022-12-16T16:26:19;1999.90;;;999.90;;
21034;SDS011;10676;50.848;3.272;2022-12-16T16:29:05;1999.90;;;999.90;;
21034;SDS011;10676;50.848;3.272;2022-12-16T16:31:52;1999.90;;;999.90;;
21034;SDS011;10676;50.848;3.272;2022-12-16T16:34:36;1999.90;;;999.90;;
21034;SDS011;10676;50.848;3.272;2022-12-16T16:37:21;1999.90;;;999.90;;
21034;SDS011;10676;50.848;3.272;2022-12-16T16:40:20;1999.90;;;999.90;;
21034;SDS011;10676;50.848;3.272;2022-12-16T16:43:06;1999.90;;;999.90;;
21034;SDS011;10676;50.848;3.272;2022-12-16T16:45:54;1999.90;;;999.90;;
21034;SDS011;10676;50.848;3.272;2022-12-16T16:48:38;1999.90;;;999.90;;
21034;SDS011;10676;50.848;3.272;2022-12-16T16:51:23;1999.90;;;999.90;;
21034;SDS011;10676;50.848;3.272;2022-12-16T16:54:07;1999.90;;;999.90;;
21034;SDS011;10676;50.848;3.272;2022-12-16T16:57:06;1999.90;;;999.90;;
21034;SDS011;10676;50.848;3.272;2022-12-16T16:59:52;1999.90;;;999.90;;
21034;SDS011;10676;50.848;3.272;2022-12-16T17:02:36;1999.90;;;999.90;;
21034;SDS011;10676;50.848;3.272;2022-12-16T17:05:20;1999.90;;;999.90;;
21034;SDS011;10676;50.848;3.272;2022-12-16T17:08:04;1999.90;;;999.90;;
21034;SDS011;10676;50.848;3.272;2022-12-16T17:10:48;1999.90;;;999.90;;
21034;SDS011;10676;50.848;3.272;2022-12-16T17:13:33;44.90;;;26.47;;
21034;SDS011;10676;50.848;3.272;2022-12-16T17:16:17;40.70;;;26.63;;
21034;SDS011;10676;50.848;3.272;2022-12-16T17:19:01;33.43;;;25.90;;
21034;SDS011;10676;50.848;3.272;2022-12-16T17:21:45;45.27;;;31.30;;
21034;SDS011;10676;50.848;3.272;2022-12-16T17:24:29;47.83;;;34.57;;
21034;SDS011;10676;50.848;3.272;2022-12-16T17:27:17;41.13;;;30.23;;
21034;SDS011;10676;50.848;3.272;2022-12-16T17:30:04;40.87;;;30.50;;
21034;SDS011;10676;50.848;3.272;2022-12-16T17:32:55;46.70;;;33.20;;
21034;SDS011;10676;50.848;3.272;2022-12-16T17:35:39;54.67;;;37.30;;
21034;SDS011;10676;50.848;3.272;2022-12-16T17:38:23;60.07;;;38.77;;
21034;SDS011;10676;50.848;3.272;2022-12-16T17:41:07;57.67;;;38.73;;
21034;SDS011;10676;50.848;3.272;2022-12-16T17:43:52;61.47;;;39.73;;
21034;SDS011;10676;50.848;3.272;2022-12-16T17:46:36;55.03;;;39.37;;
21034;SDS011;10676;50.848;3.272;2022-12-16T17:49:21;47.27;;;34.60;;
21034;SDS011;10676;50.848;3.272;2022-12-16T17:52:05;57.60;;;36.50;;
21034;SDS011;10676;50.848;3.272;2022-12-16T17:54:49;50.77;;;35.47;;